Time;durP1;ratioP1;P1;durP2;ratioP2;P2;SDS_P1;SDS_P2;PMS_P1;PMS_P2;Temp;Humidity;BMP_temperature;BMP_pressure;BME280_temperature;BME280_humidity;BME280_pressure;Samples;Min_cycle;Max_cycle;Signal;HPM_P1;HPM_P2
2022/04/09 00:02:20;;;;;;;5.07;2.42;;;12.60;99.90;;;;;;5027824;28;20223;-78
2022/04/09 00:04:47;;;;;;;2.88;2.25;;;12.60;99.90;;;;;;5026700;28;20208;-81
2022/04/09 00:07:14;;;;;;;2.47;2.20;;;12.60;99.90;;;;;;5028406;28;20663;-76
2022/04/09 00:09:43;;;;;;;3.80;2.58;;;12.60;99.90;;;;;;5030662;28;20227;-77
2022/04/09 00:12:10;;;;;;;4.03;2.75;;;12.60;99.90;;;;;;5029843;28;20220;-78
2022/04/09 00:14:37;;;;;;;3.75;2.17;;;12.60;99.90;;;;;;5027767;28;20199;-79
2022/04/09 00:17:08;;;;;;;5.25;2.33;;;12.60;99.90;;;;;;5031219;28;20223;-78
2022/04/09 00:19:36;;;;;;;3.13;1.90;;;12.60;99.90;;;;;;5030114;28;20216;-80
2022/04/09 00:22:03;;;;;;;2.75;1.98;;;12.60;99.90;;;;;;5029939;28;20227;-76
2022/04/09 00:24:30;;;;;;;3.25;2.50;;;12.50;99.90;;;;;;5026548;28;20684;-80
2022/04/09 00:26:59;;;;;;;4.93;2.50;;;12.50;99.90;;;;;;5031154;28;20219;-76
2022/04/09 00:29:26;;;;;;;5.70;2.47;;;12.50;99.90;;;;;;5030061;28;20212;-76
2022/04/09 00:31:53;;;;;;;5.15;2.78;;;12.40;99.90;;;;;;5031294;28;20219;-79
2022/04/09 00:34:20;;;;;;;3.25;2.17;;;12.40;99.90;;;;;;5029566;28;20339;-76
2022/04/09 00:36:47;;;;;;;7.82;2.17;;;12.40;99.90;;;;;;5029895;28;20227;-77
2022/04/09 00:39:14;;;;;;;3.40;2.10;;;12.40;99.90;;;;;;5029737;28;20227;-81
2022/04/09 00:41:47;;;;;;;1.77;1.63;;;12.30;99.90;;;;;;5030063;28;20267;-79
2022/04/09 00:44:19;;;;;;;3.10;2.10;;;12.30;99.90;;;;;;5031906;28;20463;-75
2022/04/09 00:46:46;;;;;;;4.50;1.90;;;12.30;99.90;;;;;;5029500;28;20521;-80
2022/04/09 00:49:14;;;;;;;2.88;1.70;;;12.30;99.90;;;;;;5029356;28;20231;-79
2022/04/09 00:51:43;;;;;;;2.75;1.73;;;12.30;99.90;;;;;;5029999;28;20234;-80
2022/04/09 00:54:13;;;;;;;2.35;1.80;;;12.30;99.90;;;;;;5029202;28;20204;-77
2022/04/09 00:56:41;;;;;;;3.53;2.15;;;12.30;99.90;;;;;;5029037;28;20426;-78
2022/04/09 00:59:11;;;;;;;2.00;1.80;;;12.30;99.90;;;;;;5029583;28;20574;-81
2022/04/09 01:01:41;;;;;;;3.30;2.30;;;12.30;99.90;;;;;;5026574;28;20211;-76
2022/04/09 01:04:10;;;;;;;2.88;2.25;;;12.30;99.90;;;;;;5030960;28;20196;-78
2022/04/09 01:06:38;;;;;;;3.10;1.83;;;12.40;99.90;;;;;;5028879;28;20753;-80
2022/04/09 01:09:06;;;;;;;4.80;1.92;;;12.30;99.90;;;;;;5029410;28;20220;-75
2022/04/09 01:11:34;;;;;;;3.35;2.25;;;12.30;99.90;;;;;;5028891;28;20198;-74
2022/04/09 01:14:01;;;;;;;2.90;1.95;;;12.30;99.90;;;;;;5029151;28;20273;-81
2022/04/09 01:16:29;;;;;;;3.00;2.17;;;12.30;99.90;;;;;;5029308;28;20207;-77
2022/04/09 01:18:58;;;;;;;3.20;1.60;;;12.30;99.90;;;;;;5027062;28;20254;-75
2022/04/09 01:21:25;;;;;;;2.13;1.92;;;12.30;99.90;;;;;;5029129;28;20273;-79
2022/04/09 01:23:54;;;;;;;3.15;2.13;;;12.30;99.90;;;;;;5028849;28;20656;-75
2022/04/09 01:26:21;;;;;;;4.05;2.50;;;12.30;99.90;;;;;;5028619;28;20204;-76
2022/04/09 01:28:49;;;;;;;2.70;2.00;;;12.30;99.90;;;;;;5031910;28;20477;-78
2022/04/09 01:31:16;;;;;;;4.57;2.28;;;12.20;99.90;;;;;;5029600;28;20589;-80
2022/04/09 01:33:44;;;;;;;2.80;2.00;;;12.20;99.90;;;;;;5027933;28;20617;-74
2022/04/09 01:36:11;;;;;;;2.30;1.90;;;12.20;99.90;;;;;;5028642;28;20200;-75
2022/04/09 01:38:39;;;;;;;3.08;2.10;;;12.10;99.90;;;;;;5026686;28;20242;-80
2022/04/09 01:41:07;;;;;;;1.90;1.80;;;12.10;99.90;;;;;;5027818;28;20675;-79
2022/04/09 01:43:40;;;;;;;2.63;2.08;;;12.10;99.90;;;;;;5027697;28;20231;-78
2022/04/09 01:46:07;;;;;;;4.38;2.00;;;12.10;99.90;;;;;;5029104;28;20298;-78
2022/04/09 01:48:34;;;;;;;6.13;2.35;;;12.00;99.90;;;;;;5027595;28;20219;-78
2022/04/09 01:51:01;;;;;;;4.05;2.20;;;12.00;99.90;;;;;;5029274;28;20204;-80
2022/04/09 01:53:28;;;;;;;3.10;2.13;;;12.00;99.90;;;;;;5027881;28;20227;-80
2022/04/09 01:55:55;;;;;;;2.35;1.90;;;12.00;99.90;;;;;;5028264;28;20663;-76
2022/04/09 01:58:24;;;;;;;2.40;1.90;;;12.00;99.90;;;;;;5028507;28;20523;-76
2022/04/09 02:00:58;;;;;;;2.28;1.85;;;11.90;99.90;;;;;;5029862;28;20220;-79
2022/04/09 02:03:25;;;;;;;2.05;1.95;;;11.90;99.90;;;;;;5027671;28;20215;-76
2022/04/09 02:05:53;;;;;;;3.70;2.00;;;11.90;99.90;;;;;;5027685;28;20195;-81
2022/04/09 02:08:20;;;;;;;2.95;1.95;;;11.90;99.90;;;;;;5030732;28;20228;-78
2022/04/09 02:10:48;;;;;;;4.75;2.55;;;11.90;99.90;;;;;;5028192;28;20234;-76
2022/04/09 02:13:18;;;;;;;4.03;2.22;;;11.90;99.90;;;;;;5028160;28;20227;-79
2022/04/09 02:15:46;;;;;;;4.32;2.42;;;11.90;99.90;;;;;;5028448;28;20211;-78
2022/04/09 02:18:13;;;;;;;3.80;2.63;;;11.80;99.90;;;;;;5026948;28;20601;-81
2022/04/09 02:20:40;;;;;;;2.63;1.90;;;11.80;99.90;;;;;;5027806;28;20744;-78
2022/04/09 02:23:07;;;;;;;2.72;1.98;;;11.80;99.90;;;;;;5027726;28;20281;-75
2022/04/09 02:25:34;;;;;;;2.17;1.90;;;11.80;99.90;;;;;;5027845;28;20200;-75
2022/04/09 02:28:01;;;;;;;3.67;2.13;;;11.80;99.90;;;;;;5030492;28;20269;-77
2022/04/09 02:30:28;;;;;;;3.38;2.53;;;11.80;99.90;;;;;;5028497;28;20203;-78
2022/04/09 02:32:57;;;;;;;4.63;2.10;;;11.80;99.90;;;;;;5023549;28;20749;-79
2022/04/09 02:35:26;;;;;;;3.58;2.50;;;11.80;99.90;;;;;;5027123;28;20196;-78
2022/04/09 02:37:53;;;;;;;2.67;2.38;;;11.70;99.90;;;;;;5026568;28;20332;-79
2022/04/09 02:40:21;;;;;;;2.45;2.25;;;11.70;99.90;;;;;;5030500;28;21800;-78
2022/04/09 02:42:48;;;;;;;2.70;2.20;;;11.70;99.90;;;;;;5027892;28;20298;-75
2022/04/09 02:45:15;;;;;;;2.65;2.10;;;11.70;99.90;;;;;;5027709;28;20378;-76
2022/04/09 02:47:42;;;;;;;3.78;2.10;;;11.70;99.90;;;;;;5027798;28;20220;-78
2022/04/09 02:50:12;;;;;;;2.67;2.03;;;11.70;99.90;;;;;;5045222;22;20231;-74
2022/04/09 02:52:41;;;;;;;2.88;2.20;;;11.70;99.90;;;;;;5019799;28;20717;-74
2022/04/09 02:55:09;;;;;;;2.22;2.05;;;11.70;99.90;;;;;;5020267;28;20262;-73
2022/04/09 02:57:37;;;;;;;2.10;1.85;;;11.60;99.90;;;;;;5020722;28;20569;-74
2022/04/09 03:00:07;;;;;;;3.13;2.35;;;11.70;99.90;;;;;;5010189;28;20669;-74
2022/04/09 03:02:36;;;;;;;2.75;2.38;;;11.60;99.90;;;;;;5007241;28;20307;-74
2022/04/09 03:05:03;;;;;;;3.55;2.25;;;11.60;99.90;;;;;;5006777;28;20303;-74
2022/04/09 03:07:32;;;;;;;3.15;2.53;;;11.50;99.90;;;;;;5007528;28;20255;-73
2022/04/09 03:09:59;;;;;;;5.10;2.80;;;11.50;99.90;;;;;;5002849;28;20228;-73
2022/04/09 03:12:26;;;;;;;5.05;2.70;;;11.40;99.90;;;;;;5003668;28;20231;-74
2022/04/09 03:14:53;;;;;;;3.28;2.45;;;11.30;99.90;;;;;;5002433;28;20201;-74
2022/04/09 03:17:20;;;;;;;3.38;2.40;;;11.20;99.90;;;;;;5005505;28;20207;-73
2022/04/09 03:19:47;;;;;;;2.38;2.15;;;11.20;99.90;;;;;;5009539;28;20216;-74
2022/04/09 03:22:14;;;;;;;3.95;2.90;;;11.20;99.90;;;;;;5007939;28;20223;-73
2022/04/09 03:24:42;;;;;;;2.30;2.10;;;11.20;99.90;;;;;;5010063;28;20282;-74
2022/04/09 03:27:09;;;;;;;3.03;2.72;;;11.20;99.90;;;;;;5009532;28;20196;-74
2022/04/09 03:29:36;;;;;;;2.90;2.65;;;11.20;99.90;;;;;;5008335;28;20220;-74
2022/04/09 03:32:04;;;;;;;5.72;2.90;;;11.20;99.90;;;;;;5009931;28;20204;-74
2022/04/09 03:34:31;;;;;;;5.43;3.20;;;11.20;99.90;;;;;;5007696;28;20224;-73
2022/04/09 03:36:58;;;;;;;3.15;2.50;;;11.10;99.90;;;;;;5012086;28;20200;-74
2022/04/09 03:39:25;;;;;;;2.90;2.20;;;11.10;99.90;;;;;;5007546;28;20228;-74
2022/04/09 03:41:53;;;;;;;5.15;2.53;;;11.10;99.90;;;;;;5010081;28;20219;-73
2022/04/09 03:44:20;;;;;;;3.08;2.40;;;11.10;99.90;;;;;;5007497;28;20274;-74
2022/04/09 03:46:47;;;;;;;2.78;2.50;;;11.10;99.90;;;;;;5011432;28;20655;-73
2022/04/09 03:49:15;;;;;;;2.30;2.10;;;11.20;99.90;;;;;;5006874;28;20290;-73
2022/04/09 03:51:42;;;;;;;2.63;2.40;;;11.20;99.90;;;;;;5011424;28;20199;-74
2022/04/09 03:54:09;;;;;;;2.67;2.47;;;11.20;99.90;;;;;;5006965;28;20270;-73
2022/04/09 03:56:37;;;;;;;2.85;2.65;;;11.30;99.90;;;;;;5006779;28;20200;-73
2022/04/09 03:59:06;;;;;;;2.45;2.25;;;11.30;99.90;;;;;;5006432;28;20255;-74
2022/04/09 04:01:33;;;;;;;2.83;2.33;;;11.20;99.90;;;;;;5013236;28;20277;-74
2022/04/09 04:04:00;;;;;;;2.42;2.10;;;11.30;99.90;;;;;;5010732;28;20216;-74
2022/04/09 04:06:27;;;;;;;3.35;2.25;;;11.20;99.90;;;;;;5007376;28;20613;-73
2022/04/09 04:08:55;;;;;;;2.72;2.33;;;11.00;99.90;;;;;;4995570;28;20235;-73
2022/04/09 04:11:22;;;;;;;2.53;2.30;;;11.00;99.90;;;;;;4981658;28;20387;-74
2022/04/09 04:13:49;;;;;;;2.13;2.00;;;10.90;99.90;;;;;;4984362;28;20592;-74
2022/04/09 04:16:18;;;;;;;2.50;2.30;;;10.90;99.90;;;;;;4986223;28;20296;-74
2022/04/09 04:18:45;;;;;;;2.22;2.00;;;11.00;99.90;;;;;;5001953;28;20216;-74
2022/04/09 04:21:12;;;;;;;2.03;1.90;;;11.00;99.90;;;;;;5008222;28;20204;-73
2022/04/09 04:23:39;;;;;;;1.83;1.73;;;11.10;99.90;;;;;;5007377;28;20220;-73
2022/04/09 04:26:06;;;;;;;1.55;1.45;;;11.10;99.90;;;;;;5008975;28;20205;-74
2022/04/09 04:28:33;;;;;;;2.70;2.05;;;11.10;99.90;;;;;;5007917;28;20220;-74
2022/04/09 04:31:00;;;;;;;2.67;2.47;;;11.20;99.90;;;;;;5004056;28;20201;-73
2022/04/09 04:33:29;;;;;;;2.75;2.45;;;11.20;99.90;;;;;;5008254;28;20216;-74
2022/04/09 04:35:56;;;;;;;2.47;2.20;;;11.20;99.90;;;;;;5014290;28;20204;-74
2022/04/09 04:38:24;;;;;;;2.30;2.20;;;11.10;99.90;;;;;;5005551;28;20270;-73
2022/04/09 04:40:53;;;;;;;2.90;2.55;;;11.10;99.90;;;;;;5007338;28;20322;-74
2022/04/09 04:43:20;;;;;;;2.45;2.25;;;11.10;99.90;;;;;;5007371;28;20582;-74
2022/04/09 04:45:47;;;;;;;3.10;2.80;;;11.10;99.90;;;;;;5008291;28;20196;-73
2022/04/09 04:48:14;;;;;;;2.40;2.20;;;11.10;99.90;;;;;;5007784;28;20278;-74
2022/04/09 04:50:43;;;;;;;2.45;2.25;;;11.00;99.90;;;;;;5006911;28;20270;-74
2022/04/09 04:53:10;;;;;;;3.13;2.70;;;10.90;99.90;;;;;;5008154;28;20224;-73
2022/04/09 04:55:37;;;;;;;2.17;2.08;;;11.00;99.90;;;;;;5007819;28;20196;-74
2022/04/09 04:58:04;;;;;;;2.40;2.20;;;11.10;99.90;;;;;;5009759;28;20227;-73
2022/04/09 05:00:31;;;;;;;2.90;2.70;;;11.10;99.90;;;;;;5008397;28;20463;-72
2022/04/09 05:02:58;;;;;;;2.40;2.20;;;11.10;99.90;;;;;;5006025;28;20232;-73
2022/04/09 05:05:26;;;;;;;3.45;2.25;;;11.20;99.90;;;;;;5006180;28;20201;-74
2022/04/09 05:07:55;;;;;;;2.88;2.13;;;11.20;99.90;;;;;;5007061;28;20665;-73
2022/04/09 05:10:24;;;;;;;2.47;2.28;;;11.30;99.90;;;;;;5005827;28;20626;-74
2022/04/09 05:12:54;;;;;;;2.40;2.20;;;11.30;99.90;;;;;;5007521;28;20205;-74
2022/04/09 05:15:21;;;;;;;3.17;2.40;;;11.40;99.90;;;;;;5008788;28;20204;-73
2022/04/09 05:17:48;;;;;;;3.83;2.55;;;11.40;99.90;;;;;;5007002;28;20596;-74
2022/04/09 05:20:17;;;;;;;2.50;2.30;;;11.50;99.90;;;;;;5006380;28;20212;-73
2022/04/09 05:22:46;;;;;;;3.78;2.28;;;11.50;99.90;;;;;;5006955;28;20271;-74
2022/04/09 05:25:19;;;;;;;4.43;3.13;;;11.60;99.90;;;;;;5006903;28;20212;-74
2022/04/09 05:27:46;;;;;;;2.55;2.15;;;11.60;99.90;;;;;;5008224;28;20287;-74
2022/04/09 05:30:14;;;;;;;5.15;3.13;;;11.60;99.90;;;;;;5007147;28;20227;-74
2022/04/09 05:32:41;;;;;;;3.28;2.88;;;11.60;99.90;;;;;;5005086;28;20192;-74
2022/04/09 05:35:09;;;;;;;2.85;2.65;;;11.60;99.90;;;;;;5005593;28;20204;-74
2022/04/09 05:37:36;;;;;;;4.43;2.90;;;11.60;99.90;;;;;;5005313;28;20714;-75
2022/04/09 05:40:05;;;;;;;2.88;2.67;;;11.60;99.90;;;;;;4981538;28;20292;-74
2022/04/09 05:42:33;;;;;;;2.38;2.15;;;11.60;99.90;;;;;;4986946;28;21623;-75
2022/04/09 05:45:01;;;;;;;2.20;2.00;;;11.70;99.90;;;;;;4979824;28;20637;-75
2022/04/09 05:47:29;;;;;;;2.47;2.28;;;11.70;99.90;;;;;;4983594;28;20475;-75
2022/04/09 05:49:58;;;;;;;2.47;2.00;;;11.90;99.90;;;;;;4979414;28;20231;-74
2022/04/09 05:52:25;;;;;;;2.72;2.30;;;12.10;99.90;;;;;;4984591;28;20194;-74
2022/04/09 05:54:53;;;;;;;2.65;2.20;;;12.20;99.90;;;;;;4987528;28;20275;-74
2022/04/09 05:57:20;;;;;;;2.38;2.17;;;12.30;99.90;;;;;;4984113;28;20229;-74
2022/04/09 05:59:48;;;;;;;3.30;2.70;;;12.20;99.90;;;;;;4999642;28;20706;-75
2022/04/09 06:02:15;;;;;;;2.95;2.60;;;12.10;99.90;;;;;;5006200;28;20212;-75
2022/04/09 06:04:42;;;;;;;4.97;3.42;;;12.00;99.90;;;;;;5003789;28;20231;-75
2022/04/09 06:07:13;;;;;;;2.50;2.30;;;11.80;99.90;;;;;;5011243;28;20200;-74
2022/04/09 06:09:41;;;;;;;2.60;2.40;;;11.80;99.90;;;;;;5004314;28;20220;-75
2022/04/09 06:12:09;;;;;;;2.67;2.47;;;11.80;99.90;;;;;;5009546;28;20631;-75
2022/04/09 06:14:36;;;;;;;2.75;2.55;;;11.90;99.90;;;;;;5005988;28;20227;-74
2022/04/09 06:17:06;;;;;;;2.20;2.00;;;12.00;99.90;;;;;;5006545;28;20204;-74
2022/04/09 06:19:35;;;;;;;2.28;2.08;;;12.00;99.90;;;;;;5005232;28;20721;-74
2022/04/09 06:22:02;;;;;;;3.40;2.67;;;12.00;99.90;;;;;;5007068;28;20224;-74
2022/04/09 06:24:29;;;;;;;3.40;2.78;;;12.10;99.90;;;;;;5002332;28;20235;-75
2022/04/09 06:26:56;;;;;;;2.53;2.33;;;12.10;99.90;;;;;;5005072;28;20203;-74
2022/04/09 06:29:23;;;;;;;2.28;2.08;;;12.20;99.90;;;;;;5004080;28;20302;-74
2022/04/09 06:31:50;;;;;;;3.08;2.75;;;12.30;99.90;;;;;;5005913;28;20298;-74
2022/04/09 06:34:19;;;;;;;3.28;3.08;;;12.40;99.90;;;;;;5004399;28;20222;-75
2022/04/09 06:36:46;;;;;;;3.33;2.97;;;12.30;99.90;;;;;;5003742;28;20666;-74
2022/04/09 06:39:15;;;;;;;2.88;2.67;;;12.20;99.90;;;;;;5002414;28;20220;-75
2022/04/09 06:41:44;;;;;;;3.40;2.83;;;12.20;99.90;;;;;;5007342;28;20202;-74
2022/04/09 06:44:11;;;;;;;2.60;2.40;;;12.10;99.90;;;;;;5002282;28;20636;-72
2022/04/09 06:46:43;;;;;;;2.45;2.30;;;12.00;99.90;;;;;;5007378;28;20627;-74
2022/04/09 06:49:11;;;;;;;2.85;2.58;;;12.10;99.90;;;;;;5002623;28;20220;-75
2022/04/09 06:51:39;;;;;;;2.58;2.38;;;12.10;99.90;;;;;;5007607;28;20283;-74
2022/04/09 06:54:07;;;;;;;2.83;2.63;;;12.40;99.90;;;;;;5003234;28;20231;-75
2022/04/09 06:56:34;;;;;;;2.63;2.42;;;13.10;99.90;;;;;;5007283;28;20255;-76
2022/04/09 06:59:01;;;;;;;2.55;2.20;;;13.60;99.90;;;;;;5001688;28;20278;-76
2022/04/09 07:01:29;;;;;;;2.40;2.20;;;14.00;99.90;;;;;;5006635;28;20242;-75
2022/04/09 07:03:57;;;;;;;2.95;2.35;;;14.40;99.90;;;;;;5001731;28;20220;-75
2022/04/09 07:06:24;;;;;;;2.92;2.53;;;14.50;99.90;;;;;;5005042;28;20252;-75
2022/04/09 07:08:52;;;;;;;2.58;2.00;;;14.40;99.90;;;;;;5005556;28;20240;-75
2022/04/09 07:11:19;;;;;;;2.97;1.98;;;14.40;99.90;;;;;;5004344;28;20204;-75
2022/04/09 07:13:46;;;;;;;2.45;1.65;;;14.70;99.90;;;;;;5004906;28;20793;-75
2022/04/09 07:16:13;;;;;;;2.03;1.63;;;15.10;99.90;;;;;;5007774;28;20200;-74
2022/04/09 07:18:40;;;;;;;2.13;1.50;;;15.10;99.90;;;;;;5005452;28;20216;-75
2022/04/09 07:21:07;;;;;;;2.92;1.73;;;15.00;99.90;;;;;;5005272;28;20211;-74
2022/04/09 07:23:35;;;;;;;1.58;1.48;;;15.30;99.90;;;;;;5006317;28;20690;-75
2022/04/09 07:26:03;;;;;;;1.10;1.10;;;15.20;99.90;;;;;;5005644;28;20580;-76
2022/04/09 07:28:30;;;;;;;1.65;1.15;;;15.40;99.90;;;;;;5005469;28;20231;-75
2022/04/09 07:30:57;;;;;;;1.15;0.90;;;15.40;99.90;;;;;;5004202;28;20200;-76
2022/04/09 07:33:24;;;;;;;0.73;0.73;;;15.20;99.90;;;;;;5005737;28;20204;-76
2022/04/09 07:35:53;;;;;;;1.05;0.90;;;15.50;99.90;;;;;;5004014;28;20204;-76
2022/04/09 07:38:20;;;;;;;0.90;0.90;;;15.60;99.90;;;;;;5004566;28;20200;-76
2022/04/09 07:40:47;;;;;;;0.75;0.75;;;15.20;99.90;;;;;;5004367;28;20212;-75
2022/04/09 07:43:16;;;;;;;1.60;0.90;;;15.10;99.90;;;;;;5005866;28;20223;-75
2022/04/09 07:45:43;;;;;;;1.88;0.90;;;15.20;99.90;;;;;;5005619;28;20227;-76
2022/04/09 07:48:11;;;;;;;1.08;1.00;;;15.30;99.90;;;;;;5004710;28;20201;-76
2022/04/09 07:50:39;;;;;;;1.55;0.88;;;15.90;99.90;;;;;;5002594;28;20303;-75
2022/04/09 07:53:07;;;;;;;1.25;0.90;;;16.40;99.90;;;;;;5007304;28;20200;-75
2022/04/09 07:55:35;;;;;;;1.27;1.00;;;16.80;99.90;;;;;;5004242;28;20247;-76
2022/04/09 07:58:02;;;;;;;2.40;0.77;;;16.90;99.90;;;;;;5007333;28;20536;-76
2022/04/09 08:00:30;;;;;;;3.92;1.00;;;17.10;99.90;;;;;;5003788;28;20231;-76
2022/04/09 08:02:57;;;;;;;0.80;0.80;;;17.20;99.90;;;;;;5002876;28;20262;-76
2022/04/09 08:05:25;;;;;;;0.70;0.70;;;17.30;99.90;;;;;;5007070;28;20751;-76
2022/04/09 08:07:52;;;;;;;1.50;0.80;;;17.30;99.90;;;;;;5009222;28;20259;-76
2022/04/09 08:10:19;;;;;;;0.70;0.70;;;17.50;99.90;;;;;;5007503;28;20228;-76
2022/04/09 08:12:48;;;;;;;4.13;0.70;;;17.50;99.90;;;;;;5009117;28;20246;-76
2022/04/09 08:15:18;;;;;;;1.95;0.75;;;17.40;99.90;;;;;;5006666;28;20220;-75
2022/04/09 08:17:47;;;;;;;1.00;0.60;;;17.30;99.90;;;;;;5008581;28;20247;-76
2022/04/09 08:20:14;;;;;;;0.60;0.60;;;17.30;99.90;;;;;;5006725;28;20320;-75
2022/04/09 08:22:42;;;;;;;0.60;0.60;;;17.40;99.90;;;;;;5009850;28;20299;-75
2022/04/09 08:25:09;;;;;;;0.70;0.70;;;17.50;99.90;;;;;;5008192;28;20655;-76
2022/04/09 08:27:38;;;;;;;3.22;0.80;;;17.40;99.90;;;;;;5007188;28;20572;-76
2022/04/09 08:30:07;;;;;;;0.80;0.80;;;17.10;99.90;;;;;;5008294;28;20710;-76
2022/04/09 08:32:34;;;;;;;0.73;0.73;;;16.90;99.90;;;;;;5008722;28;20284;-76
2022/04/09 08:35:03;;;;;;;0.80;0.80;;;16.70;99.90;;;;;;5007512;28;20216;-76
2022/04/09 08:37:31;;;;;;;0.68;0.68;;;16.50;99.90;;;;;;5007394;28;20690;-76
2022/04/09 08:39:58;;;;;;;0.70;0.70;;;16.30;99.90;;;;;;5007957;28;20282;-75
2022/04/09 08:42:25;;;;;;;0.60;0.60;;;16.10;99.90;;;;;;5006793;28;20197;-76
2022/04/09 08:44:52;;;;;;;0.60;0.60;;;15.90;99.90;;;;;;5007950;28;20219;-76
2022/04/09 08:47:19;;;;;;;0.98;0.80;;;15.70;99.90;;;;;;5008724;28;20208;-76
2022/04/09 08:49:48;;;;;;;0.63;0.63;;;15.30;99.90;;;;;;5007213;28;20819;-76
2022/04/09 08:52:17;;;;;;;1.35;0.68;;;15.10;99.90;;;;;;5069431;22;20755;-79
2022/04/09 08:54:44;;;;;;;0.60;0.60;;;14.80;99.90;;;;;;5054705;28;20226;-76
2022/04/09 08:57:12;;;;;;;0.68;0.68;;;14.70;99.90;;;;;;5057133;28;20256;-75
2022/04/09 08:59:39;;;;;;;1.58;0.82;;;14.50;99.90;;;;;;5055849;28;20246;-78
2022/04/09 09:02:06;;;;;;;0.70;0.70;;;14.30;99.90;;;;;;5046621;28;20234;-75
2022/04/09 09:04:34;;;;;;;4.97;0.95;;;14.20;99.90;;;;;;5034294;28;20228;-73
2022/04/09 09:07:18;;;;;;;0.80;0.80;;;14.40;99.90;;;;;;5039381;28;20199;-76
2022/04/09 09:09:45;;;;;;;0.50;0.50;;;14.40;99.90;;;;;;5039209;28;20306;-74
2022/04/09 09:12:14;;;;;;;0.77;0.70;;;14.50;99.90;;;;;;5037285;28;20740;-75
2022/04/09 09:14:46;;;;;;;0.77;0.77;;;15.20;99.90;;;;;;5039357;28;20211;-79
2022/04/09 09:17:13;;;;;;;0.80;0.80;;;15.90;99.90;;;;;;5036878;28;20219;-76
2022/04/09 09:19:42;;;;;;;1.27;0.80;;;16.40;99.90;;;;;;5038341;28;20238;-74
2022/04/09 09:22:10;;;;;;;1.48;0.82;;;16.90;99.90;;;;;;5038198;28;20215;-75
2022/04/09 09:24:38;;;;;;;0.63;0.63;;;17.30;99.90;;;;;;5035496;28;20701;-74
2022/04/09 09:27:07;;;;;;;1.25;0.90;;;17.60;99.90;;;;;;5038037;28;20226;-75
2022/04/09 09:29:36;;;;;;;0.70;0.70;;;17.80;99.10;;;;;;5034167;28;20265;-74
2022/04/09 09:32:06;;;;;;;0.55;0.55;;;17.90;99.40;;;;;;5035144;28;20318;-76
2022/04/09 09:34:34;;;;;;;0.70;0.70;;;17.90;96.80;;;;;;5037801;28;20334;-74
2022/04/09 09:37:01;;;;;;;3.88;0.82;;;17.50;97.80;;;;;;5033394;28;20673;-75
2022/04/09 09:39:33;;;;;;;0.50;0.50;;;17.10;96.70;;;;;;5036159;28;20223;-73
2022/04/09 09:42:03;;;;;;;0.50;0.50;;;16.50;96.20;;;;;;5034877;28;20697;-74
2022/04/09 09:44:32;;;;;;;0.60;0.60;;;15.90;95.80;;;;;;5033719;28;20223;-74
2022/04/09 09:47:06;;;;;;;0.90;0.90;;;15.50;96.40;;;;;;5039537;28;20620;-75
2022/04/09 09:49:38;;;;;;;1.13;0.77;;;15.10;95.30;;;;;;5033450;28;20223;-73
2022/04/09 09:52:06;;;;;;;0.73;0.73;;;14.60;94.60;;;;;;5039327;28;20234;-75
2022/04/09 09:54:34;;;;;;;1.08;0.80;;;14.20;95.80;;;;;;5036984;28;20216;-76
2022/04/09 09:57:03;;;;;;;0.60;0.60;;;13.90;94.90;;;;;;5039676;28;20206;-80
2022/04/09 09:59:30;;;;;;;0.77;0.77;;;13.60;95.60;;;;;;5034109;28;20219;-76
2022/04/09 10:01:59;;;;;;;0.88;0.88;;;13.50;95.10;;;;;;5034300;28;20272;-75
2022/04/09 10:04:26;;;;;;;1.35;0.90;;;13.40;95.10;;;;;;5032588;28;20721;-76
2022/04/09 10:06:54;;;;;;;2.67;1.00;;;13.40;95.90;;;;;;5040844;28;20230;-76
2022/04/09 10:09:23;;;;;;;0.70;0.70;;;13.30;94.40;;;;;;5035210;28;20227;-77
2022/04/09 10:11:52;;;;;;;1.40;1.17;;;13.30;94.90;;;;;;5039723;28;20229;-75
2022/04/09 10:14:24;;;;;;;1.00;1.00;;;13.20;94.70;;;;;;5040014;28;20220;-77
2022/04/09 10:16:52;;;;;;;1.08;0.98;;;13.10;94.50;;;;;;5048884;28;20259;-76
2022/04/09 10:19:21;;;;;;;1.20;1.00;;;13.10;94.70;;;;;;5041246;28;20231;-77
2022/04/09 10:21:51;;;;;;;4.72;2.20;;;13.00;93.60;;;;;;5042070;28;20277;-74
2022/04/09 10:24:23;;;;;;;0.90;0.90;;;13.00;94.50;;;;;;5035240;28;20288;-74
2022/04/09 10:26:53;;;;;;;1.00;1.00;;;12.90;94.20;;;;;;5039518;28;20746;-76
2022/04/09 10:29:20;;;;;;;0.80;0.80;;;12.90;93.90;;;;;;5038559;28;20242;-73
2022/04/09 10:31:52;;;;;;;1.20;1.10;;;13.00;94.50;;;;;;5038676;28;20219;-75
2022/04/09 10:34:20;;;;;;;0.80;0.80;;;13.00;94.10;;;;;;5043420;28;20253;-73
2022/04/09 10:37:06;;;;;;;1.00;0.90;;;13.10;93.10;;;;;;5036848;28;20199;-75
2022/04/09 10:39:48;;;;;;;1.90;0.95;;;13.40;93.50;;;;;;5038210;28;20234;-73
2022/04/09 10:42:44;;;;;;;1.00;1.00;;;13.70;91.30;;;;;;5039719;28;20264;-74
2022/04/09 10:45:12;;;;;;;0.90;0.90;;;13.80;92.30;;;;;;5029108;28;20223;-74
2022/04/09 10:48:10;;;;;;;1.30;1.20;;;13.70;92.00;;;;;;5038406;28;20287;-74
2022/04/09 10:50:58;;;;;;;1.90;1.80;;;13.60;91.80;;;;;;5038040;28;20222;-74
2022/04/09 10:53:27;;;;;;;1.13;1.10;;;13.40;91.70;;;;;;5035823;28;20191;-74
2022/04/09 10:56:14;;;;;;;0.90;0.90;;;13.40;92.00;;;;;;5024304;28;20219;-74
2022/04/09 10:59:33;;;;;;;0.88;0.88;;;13.30;91.30;;;;;;5020461;28;20235;-74
2022/04/09 11:02:02;;;;;;;0.80;0.80;;;13.50;91.30;;;;;;4999327;28;20235;-73
2022/04/09 11:04:44;;;;;;;1.13;0.98;;;13.30;90.80;;;;;;5000391;28;20220;-76
2022/04/09 11:07:16;;;;;;;0.90;0.90;;;13.10;91.30;;;;;;5013522;28;20230;-75
2022/04/09 11:09:57;;;;;;;1.00;1.00;;;13.00;91.90;;;;;;5004275;28;20196;-75
2022/04/09 11:12:26;;;;;;;0.80;0.80;;;12.80;91.20;;;;;;5012342;28;20234;-74
2022/04/09 11:14:55;;;;;;;0.88;0.88;;;12.60;91.30;;;;;;5004467;28;20193;-75
2022/04/09 11:17:27;;;;;;;1.10;1.10;;;12.50;90.40;;;;;;5005153;28;20638;-75
2022/04/09 11:19:57;;;;;;;2.15;0.98;;;12.30;91.40;;;;;;5000822;28;20284;-75
2022/04/09 11:22:32;;;;;;;1.00;1.00;;;12.20;91.30;;;;;;5004069;28;20225;-74
2022/04/09 11:25:00;;;;;;;1.10;1.00;;;12.10;91.00;;;;;;5006374;28;20311;-74
2022/04/09 11:27:28;;;;;;;1.40;1.00;;;12.10;91.10;;;;;;5014407;28;20646;-77
2022/04/09 11:29:55;;;;;;;1.10;1.10;;;12.00;91.00;;;;;;5032311;28;20249;-74
2022/04/09 11:32:23;;;;;;;1.10;1.10;;;12.00;91.00;;;;;;5035511;28;20452;-76
2022/04/09 11:34:53;;;;;;;1.27;1.17;;;12.00;91.00;;;;;;5033509;28;20261;-76
2022/04/09 11:37:23;;;;;;;1.00;1.00;;;12.00;90.50;;;;;;5033935;28;20223;-75
2022/04/09 11:39:52;;;;;;;1.30;1.20;;;12.00;90.70;;;;;;5039343;28;20242;-74
2022/04/09 11:42:19;;;;;;;1.00;1.00;;;11.90;90.70;;;;;;5040382;28;20227;-76
2022/04/09 11:44:46;;;;;;;1.00;1.00;;;11.90;90.50;;;;;;5037338;28;20736;-73
2022/04/09 11:47:16;;;;;;;1.80;1.10;;;11.90;90.10;;;;;;5041504;28;20230;-73
2022/04/09 11:49:44;;;;;;;1.20;1.20;;;11.90;89.90;;;;;;5038468;28;20207;-74
2022/04/09 11:52:12;;;;;;;1.08;1.08;;;11.80;90.00;;;;;;5040156;28;20688;-78
2022/04/09 11:54:43;;;;;;;1.15;1.15;;;11.80;90.20;;;;;;5036376;28;20200;-74
2022/04/09 11:57:13;;;;;;;1.20;1.20;;;11.70;90.20;;;;;;5039671;28;20206;-78
2022/04/09 11:59:41;;;;;;;1.05;1.05;;;11.70;90.00;;;;;;5039419;28;20282;-78
2022/04/09 12:02:22;;;;;;;1.08;1.08;;;11.70;90.00;;;;;;5040687;28;20740;-75
2022/04/09 12:04:50;;;;;;;1.20;1.20;;;11.70;90.00;;;;;;5039670;28;20314;-75
2022/04/09 12:07:18;;;;;;;1.02;1.00;;;11.70;90.20;;;;;;5030439;28;20227;-74
2022/04/09 12:09:47;;;;;;;1.23;1.13;;;11.70;88.10;;;;;;5038413;28;20199;-76
2022/04/09 12:12:17;;;;;;;1.00;1.00;;;11.70;89.20;;;;;;5033215;28;20226;-75
2022/04/09 12:14:56;;;;;;;1.20;1.20;;;11.80;89.80;;;;;;5038473;28;20222;-76
2022/04/09 12:17:31;;;;;;;1.27;1.17;;;11.80;87.80;;;;;;5034017;28;20223;-76
2022/04/09 12:19:59;;;;;;;1.00;1.00;;;11.80;88.40;;;;;;5033808;28;20206;-75
2022/04/09 12:22:26;;;;;;;1.20;1.10;;;11.90;89.50;;;;;;5032912;28;20621;-74
2022/04/09 12:24:56;;;;;;;1.25;1.25;;;12.00;87.80;;;;;;5017471;28;20216;-74
2022/04/09 12:27:43;;;;;;;2.85;1.25;;;12.00;87.70;;;;;;5013871;28;20229;-73
2022/04/09 12:30:11;;;;;;;1.10;1.00;;;12.00;86.10;;;;;;5016844;28;20227;-74
2022/04/09 12:32:41;;;;;;;1.20;1.20;;;12.10;87.70;;;;;;5018802;28;20231;-75
2022/04/09 12:35:09;;;;;;;1.10;1.10;;;12.10;88.50;;;;;;5010265;28;20659;-76
2022/04/09 12:37:46;;;;;;;1.50;1.40;;;12.10;86.40;;;;;;5013580;28;20393;-74
2022/04/09 12:40:16;;;;;;;1.42;1.42;;;12.00;86.10;;;;;;5014403;28;20207;-75
2022/04/09 12:42:45;;;;;;;1.25;1.25;;;12.00;87.20;;;;;;5015329;28;20216;-72
2022/04/09 12:45:17;;;;;;;1.30;1.30;;;12.00;85.80;;;;;;5012886;28;20251;-73
2022/04/09 12:47:53;;;;;;;1.10;1.10;;;12.00;86.90;;;;;;5017996;28;20220;-75
2022/04/09 12:50:27;;;;;;;1.27;1.17;;;12.00;86.70;;;;;;5016736;28;20240;-74
2022/04/09 12:52:55;;;;;;;0.82;0.82;;;12.00;87.70;;;;;;5011512;28;20220;-81
2022/04/09 12:55:25;;;;;;;1.30;1.17;;;12.00;87.90;;;;;;5019642;28;20279;-77
2022/04/09 12:57:52;;;;;;;1.27;1.27;;;12.00;86.50;;;;;;5011686;28;20290;-76